Time;durP1;ratioP1;P1;durP2;ratioP2;P2;SDS_P1;SDS_P2;PMS_P1;PMS_P2;Temp;Humidity;BMP_temperature;BMP_pressure;BME280_temperature;BME280_humidity;BME280_pressure;Samples;Min_cycle;Max_cycle;Signal;HPM_P1;HPM_P2
2024/01/28 00:01:53;;;;;;;40.50;21.70;;;1.40;99.90;;;;;;5033002;28;20437;-90
2024/01/28 00:04:18;;;;;;;43.07;22.53;;;1.80;99.90;;;;;;5030757;28;20516;-91
2024/01/28 00:06:44;;;;;;;41.63;21.73;;;1.30;99.90;;;;;;5031995;28;20405;-89
2024/01/28 00:09:09;;;;;;;44.78;21.55;;;1.30;99.90;;;;;;5031611;28;20897;-90
2024/01/28 00:11:36;;;;;;;41.00;22.45;;;1.30;99.90;;;;;;5031554;28;20397;-90
2024/01/28 00:14:02;;;;;;;41.43;23.30;;;1.40;99.90;;;;;;5032510;28;20416;-91
2024/01/28 00:16:28;;;;;;;40.20;22.53;;;1.30;99.90;;;;;;5030566;28;20795;-90
2024/01/28 00:18:58;;;;;;;36.97;20.90;;;1.30;99.90;;;;;;5032431;28;20525;-91
2024/01/28 00:21:24;;;;;;;39.80;21.65;;;1.30;99.90;;;;;;5030213;28;20467;-90
2024/01/28 00:23:51;;;;;;;44.28;21.63;;;1.30;99.90;;;;;;5048520;28;20626;-90
2024/01/28 00:26:16;;;;;;;42.83;21.60;;;1.30;99.90;;;;;;5031062;28;20401;-89
2024/01/28 00:28:42;;;;;;;39.87;21.47;;;1.30;99.90;;;;;;5014464;28;20899;-89
2024/01/28 00:31:09;;;;;;;38.17;20.10;;;1.20;99.90;;;;;;5012002;28;20972;-90
2024/01/28 00:33:35;;;;;;;37.60;20.37;;;1.20;99.90;;;;;;5026955;28;20498;-91
2024/01/28 00:36:01;;;;;;;35.17;20.17;;;1.20;99.90;;;;;;5011889;28;20500;-91
2024/01/28 00:38:31;;;;;;;38.03;20.23;;;1.30;99.90;;;;;;5010444;28;20407;-89
2024/01/28 00:40:58;;;;;;;37.15;19.70;;;1.30;99.90;;;;;;5028632;28;20805;-91
2024/01/28 00:43:24;;;;;;;36.20;20.20;;;1.30;99.90;;;;;;5010548;28;20916;-89
2024/01/28 00:45:50;;;;;;;38.28;20.20;;;1.30;99.90;;;;;;5020000;28;20488;-90
2024/01/28 00:48:15;;;;;;;35.87;19.07;;;1.30;99.90;;;;;;5031377;28;20397;-90
2024/01/28 00:50:41;;;;;;;39.73;19.87;;;1.30;99.90;;;;;;5030117;28;20405;-91
2024/01/28 00:53:06;;;;;;;36.60;19.48;;;1.40;99.90;;;;;;5031359;28;20812;-89
2024/01/28 00:55:32;;;;;;;32.47;17.80;;;1.40;99.90;;;;;;5029965;28;20478;-91
2024/01/28 00:57:58;;;;;;;36.10;19.43;;;1.40;99.90;;;;;;5048378;28;20416;-90
2024/01/28 01:00:25;;;;;;;36.83;19.55;;;1.40;99.90;;;;;;5029762;28;20402;-90
2024/01/28 01:02:53;;;;;;;40.63;19.88;;;1.40;99.90;;;;;;5030987;28;20405;-90
2024/01/28 01:05:18;;;;;;;30.38;16.77;;;1.40;99.90;;;;;;5030133;28;20426;-90
2024/01/28 01:07:44;;;;;;;31.58;17.33;;;1.40;99.90;;;;;;5046942;28;20417;-90
2024/01/28 01:10:10;;;;;;;31.70;16.45;;;1.40;99.90;;;;;;5030822;28;20904;-90
2024/01/28 01:12:35;;;;;;;33.20;16.40;;;1.40;99.90;;;;;;5024061;28;21197;-91
2024/01/28 01:15:01;;;;;;;29.03;15.67;;;1.40;99.90;;;;;;5011544;28;20967;-90
2024/01/28 01:17:28;;;;;;;27.70;15.17;;;1.80;99.90;;;;;;5009571;28;20574;-90
2024/01/28 01:19:53;;;;;;;31.30;15.27;;;1.50;99.90;;;;;;5011137;28;20410;-90
2024/01/28 01:22:19;;;;;;;31.52;15.00;;;1.40;99.90;;;;;;5009975;28;20407;-89
2024/01/28 01:24:44;;;;;;;28.23;15.30;;;1.50;99.90;;;;;;5021704;28;20451;-90
2024/01/28 01:27:10;;;;;;;26.80;15.60;;;1.80;99.90;;;;;;5051037;28;20403;-89
2024/01/28 01:29:36;;;;;;;27.42;15.57;;;1.40;99.90;;;;;;5066602;28;20415;-91
2024/01/28 01:32:02;;;;;;;30.88;16.27;;;1.90;99.90;;;;;;5033891;28;20753;-90
2024/01/28 01:34:27;;;;;;;29.10;16.13;;;1.60;99.90;;;;;;5029371;28;20498;-90
2024/01/28 01:36:53;;;;;;;27.08;15.52;;;1.60;99.90;;;;;;5030758;28;20393;-91
2024/01/28 01:39:19;;;;;;;27.47;15.70;;;2.10;99.90;;;;;;5030047;28;20991;-90
2024/01/28 01:41:44;;;;;;;29.27;15.47;;;1.60;99.90;;;;;;5030468;28;20442;-89
2024/01/28 01:44:11;;;;;;;32.30;14.80;;;1.80;99.90;;;;;;5029915;28;20438;-90
2024/01/28 01:46:38;;;;;;;23.33;14.32;;;1.60;99.90;;;;;;5045934;28;20401;-90
2024/01/28 01:49:04;;;;;;;30.20;15.27;;;1.60;99.90;;;;;;5030060;28;20463;-90
2024/01/28 01:51:30;;;;;;;29.17;14.50;;;1.60;99.90;;;;;;5029016;28;20408;-90
2024/01/28 01:53:56;;;;;;;26.88;14.68;;;1.70;99.90;;;;;;5047508;28;20857;-92
2024/01/28 01:56:23;;;;;;;29.65;14.50;;;1.80;99.90;;;;;;5028816;28;20931;-90
2024/01/28 01:58:49;;;;;;;28.38;14.55;;;1.80;99.90;;;;;;5030605;28;20408;-91
2024/01/28 02:01:16;;;;;;;27.27;13.63;;;1.70;99.90;;;;;;5046275;28;20401;-90
2024/01/28 02:03:43;;;;;;;24.80;13.77;;;1.70;99.90;;;;;;5029726;28;20440;-89
2024/01/28 02:06:13;;;;;;;28.38;14.20;;;1.70;99.90;;;;;;5030156;28;20440;-90
2024/01/28 02:08:39;;;;;;;27.43;13.80;;;1.70;99.90;;;;;;5028893;28;20518;-93
2024/01/28 02:11:06;;;;;;;26.70;13.93;;;1.80;99.90;;;;;;5030626;28;20476;-92
2024/01/28 02:13:32;;;;;;;25.58;13.77;;;1.70;99.90;;;;;;5028700;28;20414;-91
2024/01/28 02:15:58;;;;;;;22.13;13.77;;;1.90;99.90;;;;;;5030567;28;21067;-91
2024/01/28 02:18:24;;;;;;;24.70;14.02;;;1.80;99.90;;;;;;5029588;28;20414;-90
2024/01/28 02:20:50;;;;;;;26.57;13.80;;;1.80;99.90;;;;;;5030221;28;20765;-90
2024/01/28 02:23:22;;;;;;;26.67;13.50;;;1.80;99.90;;;;;;5030401;28;20808;-91
2024/01/28 02:25:50;;;;;;;22.27;13.05;;;1.80;99.90;;;;;;5029319;28;20420;-90
2024/01/28 02:28:16;;;;;;;25.17;13.73;;;1.80;99.90;;;;;;5030338;28;20420;-91
2024/01/28 02:30:43;;;;;;;23.73;13.75;;;1.90;99.90;;;;;;5028467;28;20435;-90
2024/01/28 02:33:08;;;;;;;26.23;13.85;;;1.90;99.90;;;;;;5046935;28;20417;-92
2024/01/28 02:35:34;;;;;;;26.33;14.03;;;2.10;99.90;;;;;;5029191;28;20428;-91
2024/01/28 02:38:00;;;;;;;26.87;13.80;;;1.90;99.90;;;;;;5029925;28;20492;-90
2024/01/28 02:40:25;;;;;;;24.55;13.52;;;1.90;99.90;;;;;;5046705;28;20456;-90
2024/01/28 02:42:51;;;;;;;22.00;12.90;;;1.90;99.90;;;;;;5028903;28;20409;-90
2024/01/28 02:45:18;;;;;;;25.23;13.40;;;2.00;99.90;;;;;;5046606;28;20949;-91
2024/01/28 02:47:44;;;;;;;23.97;12.77;;;2.00;99.90;;;;;;5028759;28;20404;-91
2024/01/28 02:50:09;;;;;;;23.83;12.53;;;2.00;99.90;;;;;;5030866;28;20405;-91
2024/01/28 02:52:35;;;;;;;22.30;12.73;;;2.00;99.90;;;;;;5029200;28;20417;-91
2024/01/28 02:55:01;;;;;;;25.20;12.93;;;2.30;99.90;;;;;;5030143;28;20410;-88
2024/01/28 02:57:27;;;;;;;26.30;11.90;;;2.10;99.90;;;;;;5029742;28;20441;-90
2024/01/28 02:59:52;;;;;;;23.27;11.35;;;2.00;99.90;;;;;;5031239;28;20405;-90
2024/01/28 03:02:18;;;;;;;21.13;11.68;;;2.10;99.90;;;;;;5033625;28;20412;-91
2024/01/28 03:04:44;;;;;;;22.83;12.00;;;2.10;99.90;;;;;;5031989;28;20440;-92
2024/01/28 03:07:10;;;;;;;20.27;10.63;;;2.10;99.90;;;;;;5033545;28;20406;-91
2024/01/28 03:09:35;;;;;;;20.83;11.20;;;2.20;99.90;;;;;;5031632;28;20398;-90
2024/01/28 03:12:01;;;;;;;23.23;11.87;;;2.20;99.90;;;;;;5013645;28;20398;-90
2024/01/28 03:14:27;;;;;;;21.67;11.98;;;2.50;99.90;;;;;;5012515;28;20407;-90
2024/01/28 03:16:52;;;;;;;21.73;11.77;;;2.20;99.90;;;;;;5013850;28;20878;-91
2024/01/28 03:19:18;;;;;;;22.87;11.33;;;2.10;99.90;;;;;;5013044;28;20474;-90
2024/01/28 03:21:44;;;;;;;20.67;11.27;;;2.10;99.90;;;;;;5012451;28;20418;-91
2024/01/28 03:24:10;;;;;;;21.07;11.70;;;1.90;99.90;;;;;;5013083;28;20481;-91
2024/01/28 03:26:35;;;;;;;23.60;12.50;;;2.20;99.90;;;;;;5012006;28;20918;-90
2024/01/28 03:29:04;;;;;;;22.42;11.68;;;2.50;99.90;;;;;;5030032;28;20413;-91
2024/01/28 03:31:30;;;;;;;21.17;12.17;;;2.10;99.90;;;;;;5011704;28;20410;-91
2024/01/28 03:33:55;;;;;;;21.33;12.17;;;2.10;99.90;;;;;;5012957;28;20494;-91
2024/01/28 03:36:21;;;;;;;21.00;12.50;;;1.90;99.90;;;;;;5012376;28;20403;-91
2024/01/28 03:38:47;;;;;;;21.37;12.10;;;2.30;99.90;;;;;;5028961;28;20407;-91
2024/01/28 03:41:13;;;;;;;25.65;12.73;;;2.10;99.90;;;;;;5012646;28;20506;-92
2024/01/28 03:43:39;;;;;;;25.50;12.17;;;2.10;99.90;;;;;;5011522;28;21040;-90
2024/01/28 03:46:07;;;;;;;23.37;13.50;;;2.10;99.90;;;;;;5014423;28;20407;-91
2024/01/28 03:48:32;;;;;;;22.45;12.93;;;2.10;99.90;;;;;;5010950;28;20411;-91
2024/01/28 03:50:58;;;;;;;23.70;13.05;;;2.10;99.90;;;;;;5030832;28;20401;-91
2024/01/28 03:53:24;;;;;;;26.23;13.30;;;2.30;99.90;;;;;;5048394;28;20797;-90
2024/01/28 03:55:49;;;;;;;22.35;12.85;;;2.10;99.90;;;;;;5032296;28;20441;-91
2024/01/28 03:58:15;;;;;;;25.80;13.20;;;2.20;99.90;;;;;;5032118;28;20489;-90
2024/01/28 04:00:41;;;;;;;24.90;13.20;;;2.30;99.90;;;;;;5031728;28;20409;-92
2024/01/28 04:03:06;;;;;;;25.50;13.63;;;2.00;99.90;;;;;;5026632;28;20397;-91
2024/01/28 04:05:32;;;;;;;26.90;14.38;;;2.00;99.90;;;;;;5014992;28;20821;-90
2024/01/28 04:07:58;;;;;;;22.63;13.07;;;2.00;99.90;;;;;;5012663;28;20823;-91
2024/01/28 04:10:24;;;;;;;25.33;13.45;;;2.20;99.90;;;;;;5010785;28;20407;-92
2024/01/28 04:12:50;;;;;;;26.00;13.88;;;1.90;99.90;;;;;;5012443;28;20411;-91
2024/01/28 04:15:16;;;;;;;22.15;13.93;;;1.90;99.90;;;;;;5011531;28;20835;-91
2024/01/28 04:17:41;;;;;;;26.60;13.88;;;1.90;99.90;;;;;;5011903;28;21229;-91
2024/01/28 04:20:08;;;;;;;24.87;13.93;;;1.90;99.90;;;;;;5012373;28;20498;-91
2024/01/28 04:22:34;;;;;;;22.83;13.80;;;1.90;99.90;;;;;;5010896;28;20482;-91
2024/01/28 04:25:00;;;;;;;26.60;14.45;;;2.30;99.90;;;;;;5012439;28;20444;-91
2024/01/28 04:27:26;;;;;;;26.87;14.83;;;1.70;99.90;;;;;;5010923;28;20485;-91
2024/01/28 04:29:51;;;;;;;25.00;15.43;;;1.80;99.90;;;;;;5012277;28;21070;-90
2024/01/28 04:32:17;;;;;;;28.35;15.60;;;1.80;99.90;;;;;;5010986;28;20471;-91
2024/01/28 04:34:43;;;;;;;23.20;14.88;;;1.80;99.90;;;;;;5028506;28;20411;-90
2024/01/28 04:37:08;;;;;;;25.42;15.65;;;1.90;99.90;;;;;;5011682;28;20777;-91
2024/01/28 04:39:35;;;;;;;23.97;15.63;;;1.70;99.90;;;;;;5027422;28;20422;-91
2024/01/28 04:42:01;;;;;;;24.88;15.48;;;1.70;99.90;;;;;;5011675;28;20469;-92
2024/01/28 04:44:27;;;;;;;23.73;14.95;;;1.70;99.90;;;;;;5009944;28;20455;-90
2024/01/28 04:46:55;;;;;;;26.63;15.63;;;1.70;99.90;;;;;;5012195;28;20934;-90
2024/01/28 04:49:20;;;;;;;23.70;15.73;;;1.60;99.90;;;;;;5010621;28;20403;-91
2024/01/28 04:51:46;;;;;;;23.25;15.73;;;1.60;99.90;;;;;;5024795;28;20494;-90
2024/01/28 04:54:14;;;;;;;27.45;15.75;;;1.80;99.90;;;;;;5030749;28;20867;-90
2024/01/28 04:56:40;;;;;;;24.90;16.60;;;1.50;99.90;;;;;;5030636;28;20421;-91
2024/01/28 04:59:06;;;;;;;26.13;16.25;;;1.80;99.90;;;;;;5031413;28;20406;-91
2024/01/28 05:01:33;;;;;;;24.88;16.08;;;1.50;99.90;;;;;;5030081;28;20401;-90
2024/01/28 05:04:01;;;;;;;22.90;15.45;;;1.50;99.90;;;;;;5031611;28;20791;-92
2024/01/28 05:06:34;;;;;;;28.13;16.42;;;1.60;99.90;;;;;;5029695;28;20928;-92
2024/01/28 05:09:03;;;;;;;25.20;16.35;;;1.50;99.90;;;;;;5048068;28;20419;-92
2024/01/28 05:11:32;;;;;;;24.33;15.53;;;1.40;99.90;;;;;;5030159;28;20413;-90
2024/01/28 05:14:00;;;;;;;22.77;15.77;;;1.40;99.90;;;;;;5024531;28;20777;-91
2024/01/28 05:16:27;;;;;;;23.25;16.50;;;1.50;99.90;;;;;;5011337;28;21064;-92
2024/01/28 05:18:53;;;;;;;26.27;15.32;;;1.30;99.90;;;;;;5009991;28;20490;-91
2024/01/28 05:21:19;;;;;;;26.80;16.50;;;1.40;99.90;;;;;;5011498;28;20403;-91
2024/01/28 05:23:46;;;;;;;21.42;16.17;;;1.40;99.90;;;;;;5009237;28;20426;-92
2024/01/28 05:26:13;;;;;;;24.85;16.70;;;1.30;99.90;;;;;;5011456;28;20411;-90
2024/01/28 05:28:38;;;;;;;21.77;15.80;;;1.30;99.90;;;;;;5010128;28;20509;-90
2024/01/28 05:31:04;;;;;;;26.90;16.20;;;1.30;99.90;;;;;;5010914;28;20503;-91
2024/01/28 05:33:33;;;;;;;27.05;16.50;;;1.30;99.90;;;;;;5027700;28;20415;-92
2024/01/28 05:36:00;;;;;;;24.47;15.73;;;1.30;99.90;;;;;;5032104;28;20468;-91
2024/01/28 05:38:26;;;;;;;26.95;16.90;;;1.20;99.90;;;;;;5039393;28;20929;-90
2024/01/28 05:40:52;;;;;;;22.20;16.33;;;1.20;99.90;;;;;;5028248;28;20433;-91
2024/01/28 05:43:18;;;;;;;24.48;16.35;;;1.20;99.90;;;;;;5030749;28;20503;-91
2024/01/28 05:45:43;;;;;;;24.08;15.70;;;1.10;99.90;;;;;;5014363;28;20438;-89
2024/01/28 05:48:09;;;;;;;22.85;16.60;;;1.10;99.90;;;;;;5010766;28;20447;-91
2024/01/28 05:50:35;;;;;;;24.13;16.20;;;0.90;99.90;;;;;;5009357;28;20450;-91
2024/01/28 05:53:01;;;;;;;25.20;16.70;;;1.20;99.90;;;;;;5008590;28;20832;-91
2024/01/28 05:55:26;;;;;;;23.70;17.00;;;1.30;99.90;;;;;;5029468;28;20424;-91
2024/01/28 05:57:53;;;;;;;24.70;16.88;;;1.00;99.90;;;;;;5028027;28;20429;-90
2024/01/28 06:00:19;;;;;;;27.13;16.67;;;1.00;99.90;;;;;;5030174;28;20844;-90
2024/01/28 06:02:45;;;;;;;24.20;16.42;;;1.00;99.90;;;;;;5027636;28;20417;-91
2024/01/28 06:05:11;;;;;;;23.98;16.02;;;1.40;99.90;;;;;;5029425;28;20476;-92
2024/01/28 06:07:37;;;;;;;25.83;17.02;;;0.90;99.90;;;;;;5030043;28;20474;-90
2024/01/28 06:10:06;;;;;;;28.43;17.43;;;1.00;99.90;;;;;;5028596;28;20459;-90
2024/01/28 06:12:32;;;;;;;27.23;16.73;;;0.90;99.90;;;;;;5029914;28;20428;-90
2024/01/28 06:15:02;;;;;;;25.10;16.37;;;1.50;99.90;;;;;;5027733;28;20417;-90
2024/01/28 06:17:29;;;;;;;25.20;16.33;;;0.90;99.90;;;;;;5030273;28;20908;-89
2024/01/28 06:19:55;;;;;;;23.48;16.48;;;0.80;99.90;;;;;;5028563;28;20401;-91
2024/01/28 06:22:21;;;;;;;25.23;17.13;;;0.80;99.90;;;;;;5030208;28;20409;-91
2024/01/28 06:24:46;;;;;;;25.73;16.67;;;0.90;99.90;;;;;;5044563;28;20516;-91
2024/01/28 06:27:12;;;;;;;27.93;16.47;;;0.80;99.90;;;;;;5029940;28;20498;-91
2024/01/28 06:29:38;;;;;;;28.33;17.00;;;1.40;99.90;;;;;;5029327;28;20908;-89
2024/01/28 06:32:04;;;;;;;25.23;16.58;;;1.00;99.90;;;;;;5024511;28;20413;-90
2024/01/28 06:34:30;;;;;;;26.10;17.27;;;0.80;99.90;;;;;;5013461;28;20518;-91
2024/01/28 06:36:56;;;;;;;28.13;16.73;;;0.70;99.90;;;;;;5023188;28;20991;-91
2024/01/28 06:39:21;;;;;;;26.03;16.47;;;1.00;99.90;;;;;;5033593;28;20441;-90
2024/01/28 06:41:48;;;;;;;28.20;16.45;;;0.60;99.90;;;;;;5058625;28;20530;-89
2024/01/28 06:44:13;;;;;;;25.83;15.70;;;0.80;99.90;;;;;;5033561;28;20426;-90
2024/01/28 06:46:40;;;;;;;25.10;16.25;;;0.80;99.90;;;;;;5017021;28;20470;-92
2024/01/28 06:49:06;;;;;;;27.00;15.87;;;1.00;99.90;;;;;;5035873;28;20497;-90
2024/01/28 06:51:32;;;;;;;25.47;16.17;;;0.80;99.90;;;;;;5033518;28;20413;-90
2024/01/28 06:53:57;;;;;;;23.83;16.53;;;0.70;99.90;;;;;;5048292;28;20441;-90
2024/01/28 06:56:23;;;;;;;28.20;16.13;;;0.70;99.90;;;;;;5033725;28;20854;-90
2024/01/28 06:58:49;;;;;;;24.08;16.23;;;0.90;99.90;;;;;;5031489;28;20888;-92
2024/01/28 07:01:15;;;;;;;23.40;15.50;;;0.80;99.90;;;;;;5032830;28;20413;-91
2024/01/28 07:03:40;;;;;;;26.73;15.93;;;0.70;99.90;;;;;;5032098;28;20985;-90
2024/01/28 07:06:06;;;;;;;25.05;15.70;;;0.70;99.90;;;;;;5032312;28;20440;-92
2024/01/28 07:08:32;;;;;;;26.23;15.75;;;0.70;99.90;;;;;;5033075;28;20750;-89
2024/01/28 07:10:58;;;;;;;24.60;16.70;;;0.70;99.90;;;;;;5032417;28;20932;-91
2024/01/28 07:13:24;;;;;;;25.63;16.40;;;0.80;99.90;;;;;;5033619;28;20462;-90
2024/01/28 07:15:49;;;;;;;24.20;15.68;;;0.90;99.90;;;;;;5027044;28;20888;-90
2024/01/28 07:18:15;;;;;;;25.45;15.85;;;0.90;99.90;;;;;;5048503;28;20397;-91
2024/01/28 07:20:41;;;;;;;24.63;15.80;;;0.80;99.90;;;;;;5021674;28;20411;-90
2024/01/28 07:23:07;;;;;;;25.93;16.83;;;0.70;99.90;;;;;;5025543;28;20415;-90
2024/01/28 07:25:33;;;;;;;26.63;17.27;;;0.70;99.90;;;;;;5022171;28;20441;-91
2024/01/28 07:27:58;;;;;;;38.77;24.17;;;0.70;99.90;;;;;;5025425;28;20926;-91
2024/01/28 07:30:24;;;;;;;31.37;21.70;;;0.70;99.90;;;;;;5018445;28;20501;-90
2024/01/28 07:32:50;;;;;;;24.17;17.10;;;0.70;99.90;;;;;;5021178;28;20437;-91
2024/01/28 07:35:15;;;;;;;26.20;16.88;;;1.10;99.90;;;;;;5023718;28;20831;-90
2024/01/28 07:37:42;;;;;;;25.17;16.23;;;0.70;99.90;;;;;;5031412;28;20497;-90
2024/01/28 07:40:08;;;;;;;24.48;15.48;;;0.80;99.90;;;;;;5032566;28;20597;-90
2024/01/28 07:42:34;;;;;;;26.48;15.05;;;0.70;99.90;;;;;;5030597;28;20408;-91
2024/01/28 07:45:00;;;;;;;22.47;14.60;;;0.80;99.90;;;;;;5031433;28;20523;-90
2024/01/28 07:47:26;;;;;;;23.48;14.48;;;0.80;99.90;;;;;;5048914;28;20429;-90
2024/01/28 07:49:51;;;;;;;23.98;14.45;;;0.80;99.90;;;;;;5030854;28;20414;-92
2024/01/28 07:52:17;;;;;;;27.17;14.60;;;0.80;99.90;;;;;;5032398;28;20410;-90
2024/01/28 07:54:42;;;;;;;21.17;13.33;;;0.80;99.90;;;;;;5030849;28;20433;-89
2024/01/28 07:57:08;;;;;;;24.27;14.00;;;0.80;99.90;;;;;;5032019;28;20409;-92
2024/01/28 07:59:34;;;;;;;20.70;12.10;;;0.90;99.90;;;;;;5030943;28;20402;-90
2024/01/28 08:01:59;;;;;;;21.75;13.43;;;0.90;99.90;;;;;;5032620;28;20409;-89
2024/01/28 08:04:25;;;;;;;20.67;12.93;;;0.90;99.90;;;;;;5030013;28;20437;-91
2024/01/28 08:06:50;;;;;;;18.13;12.13;;;0.90;99.90;;;;;;5031444;28;20421;-91
2024/01/28 08:09:17;;;;;;;19.02;12.13;;;1.20;99.90;;;;;;5031890;28;20421;-88
2024/01/28 08:11:43;;;;;;;18.27;11.85;;;1.00;99.90;;;;;;5047422;28;21097;-92
2024/01/28 08:14:09;;;;;;;20.55;12.27;;;1.40;99.90;;;;;;5031995;28;20445;-91
2024/01/28 08:16:35;;;;;;;18.77;11.18;;;1.10;99.90;;;;;;5030551;28;20401;-91
2024/01/28 08:19:04;;;;;;;21.50;11.70;;;1.20;99.90;;;;;;5022601;28;20930;-91
2024/01/28 08:21:30;;;;;;;18.67;10.63;;;1.20;99.90;;;;;;5011083;28;20418;-89
2024/01/28 08:23:56;;;;;;;17.95;10.20;;;1.20;99.90;;;;;;5014807;28;20472;-91
2024/01/28 08:26:22;;;;;;;19.38;10.60;;;1.30;99.90;;;;;;5014169;28;20458;-90
2024/01/28 08:28:47;;;;;;;18.93;11.50;;;1.40;99.90;;;;;;5010662;28;20411;-92
2024/01/28 08:31:13;;;;;;;18.73;10.30;;;1.40;99.90;;;;;;5023185;28;20406;-89
2024/01/28 08:33:39;;;;;;;17.30;10.20;;;1.40;99.90;;;;;;5028965;28;20428;-93
2024/01/28 08:36:05;;;;;;;18.40;10.33;;;1.40;99.90;;;;;;5032057;28;20500;-91
2024/01/28 08:38:32;;;;;;;19.02;10.27;;;1.50;99.90;;;;;;5029860;28;20440;-92
2024/01/28 08:40:57;;;;;;;16.63;10.30;;;1.70;99.90;;;;;;5031581;28;20470;-90
2024/01/28 08:43:23;;;;;;;17.98;10.70;;;1.70;99.90;;;;;;5030857;28;20422;-91
2024/01/28 08:45:49;;;;;;;15.93;9.48;;;1.80;99.90;;;;;;5030570;28;20431;-91
2024/01/28 08:48:15;;;;;;;20.33;9.55;;;1.90;99.90;;;;;;5031549;28;20923;-90
2024/01/28 08:50:40;;;;;;;18.02;10.68;;;2.00;99.90;;;;;;5030681;28;20397;-91
2024/01/28 08:53:07;;;;;;;21.90;11.13;;;2.00;99.90;;;;;;5031085;28;20403;-91
2024/01/28 08:55:33;;;;;;;16.08;9.80;;;2.20;99.90;;;;;;5030290;28;21166;-91
2024/01/28 08:57:59;;;;;;;16.23;9.45;;;2.20;99.90;;;;;;5031839;28;20923;-91
2024/01/28 09:00:24;;;;;;;15.43;9.27;;;2.30;99.90;;;;;;5026945;28;20494;-91
2024/01/28 09:02:50;;;;;;;14.32;8.02;;;2.50;99.90;;;;;;5011461;28;20424;-92
2024/01/28 09:05:16;;;;;;;16.85;8.55;;;2.60;99.90;;;;;;5011040;28;20442;-91
2024/01/28 09:07:42;;;;;;;18.25;8.85;;;2.60;99.90;;;;;;5010133;28;20451;-92
2024/01/28 09:10:08;;;;;;;16.92;8.68;;;2.90;99.90;;;;;;5011281;28;20501;-91
2024/01/28 09:12:33;;;;;;;16.27;8.10;;;2.90;99.90;;;;;;5013792;28;20409;-90
2024/01/28 09:14:59;;;;;;;15.90;8.10;;;3.00;99.90;;;;;;5031429;28;20417;-92
2024/01/28 09:17:25;;;;;;;15.57;8.30;;;3.30;99.90;;;;;;5029698;28;20563;-90
2024/01/28 09:19:50;;;;;;;14.17;7.53;;;3.40;99.90;;;;;;5029874;28;20445;-91
2024/01/28 09:22:16;;;;;;;14.02;7.07;;;3.30;99.90;;;;;;5020121;28;20407;-92
2024/01/28 09:24:42;;;;;;;13.32;6.78;;;3.50;99.90;;;;;;5013846;28;20440;-92
2024/01/28 09:27:10;;;;;;;12.80;7.03;;;4.20;99.90;;;;;;5046001;28;20445;-90
2024/01/28 09:29:37;;;;;;;12.07;6.38;;;3.80;99.90;;;;;;5008842;28;20423;-91
2024/01/28 09:32:03;;;;;;;14.40;6.72;;;3.80;99.90;;;;;;5042389;28;20769;-92
2024/01/28 09:34:29;;;;;;;11.97;7.17;;;3.90;99.90;;;;;;5017707;28;20506;-92
2024/01/28 09:36:55;;;;;;;11.90;5.60;;;4.10;99.90;;;;;;5016092;28;20406;-91
2024/01/28 09:39:20;;;;;;;14.30;7.70;;;3.90;99.90;;;;;;5027819;28;20966;-90
2024/01/28 09:41:55;;;;;;;12.55;6.63;;;4.00;99.90;;;;;;5009649;28;20914;-91
2024/01/28 09:44:21;;;;;;;12.02;5.47;;;4.10;99.90;;;;;;5027293;28;20449;-90
2024/01/28 09:46:48;;;;;;;11.50;5.70;;;4.00;99.90;;;;;;5016477;28;20410;-91
2024/01/28 09:49:15;;;;;;;12.57;5.50;;;3.90;99.90;;;;;;5017593;28;20952;-91
2024/01/28 09:51:42;;;;;;;12.27;5.65;;;3.90;99.90;;;;;;5044494;28;20405;-90
2024/01/28 09:54:12;;;;;;;12.80;5.00;;;4.30;99.90;;;;;;5029790;28;20425;-92
2024/01/28 09:56:41;;;;;;;10.40;4.60;;;4.00;99.90;;;;;;5009363;28;20464;-91
2024/01/28 09:59:09;;;;;;;11.20;5.20;;;4.80;99.90;;;;;;5023850;28;20490;-91
2024/01/28 10:01:35;;;;;;;9.98;4.90;;;4.90;99.90;;;;;;5019242;28;20422;-92
2024/01/28 10:04:01;;;;;;;13.87;5.53;;;5.30;99.90;;;;;;5013370;28;20523;-91
2024/01/28 10:06:27;;;;;;;10.45;5.13;;;5.50;99.90;;;;;;5028873;28;20426;-91
2024/01/28 10:08:53;;;;;;;10.50;4.40;;;5.80;99.90;;;;;;5026146;28;20434;-92
2024/01/28 10:11:19;;;;;;;10.47;4.13;;;6.20;99.90;;;;;;5029498;28;20476;-92
2024/01/28 10:13:46;;;;;;;11.27;4.73;;;6.40;99.90;;;;;;5031596;28;20409;-93
2024/01/28 10:16:12;;;;;;;9.60;4.22;;;6.60;99.90;;;;;;5027258;28;20810;-95
2024/01/28 10:18:38;;;;;;;8.70;4.07;;;6.80;99.90;;;;;;5030695;28;20407;-92
2024/01/28 10:21:03;;;;;;;8.33;4.60;;;6.90;99.90;;;;;;5032032;28;20423;-92
2024/01/28 10:23:34;;;;;;;10.13;4.20;;;7.00;99.90;;;;;;5017079;28;20458;-90
2024/01/28 10:26:01;;;;;;;9.45;3.83;;;7.00;99.90;;;;;;5024097;28;20433;-91
2024/01/28 10:28:29;;;;;;;7.70;4.00;;;7.20;99.90;;;;;;5042175;28;20429;-93
2024/01/28 10:30:55;;;;;;;8.88;3.67;;;7.20;99.90;;;;;;5014883;28;20409;-90
2024/01/28 10:33:21;;;;;;;9.10;3.65;;;7.30;99.90;;;;;;5049226;28;20405;-93
2024/01/28 10:35:47;;;;;;;8.85;3.95;;;7.50;99.60;;;;;;5014128;28;20425;-92
2024/01/28 10:38:20;;;;;;;9.48;3.30;;;7.60;99.90;;;;;;5025393;28;20455;-94
2024/01/28 10:40:47;;;;;;;8.93;3.47;;;7.90;97.40;;;;;;5022796;28;20422;-93
2024/01/28 10:43:15;;;;;;;9.50;3.65;;;7.90;97.70;;;;;;5032458;28;20405;-91
2024/01/28 10:45:43;;;;;;;7.55;3.05;;;8.00;96.90;;;;;;5032938;28;20426;-94
2024/01/28 10:48:14;;;;;;;9.13;3.38;;;8.10;95.00;;;;;;5030780;28;20421;-93
2024/01/28 10:50:41;;;;;;;7.93;3.08;;;8.30;86.70;;;;;;5015946;28;20430;-93
2024/01/28 10:53:08;;;;;;;7.40;3.13;;;8.10;85.50;;;;;;5024006;28;20405;-93
2024/01/28 10:55:35;;;;;;;7.95;3.10;;;8.40;91.10;;;;;;5040761;28;20415;-92
2024/01/28 10:58:04;;;;;;;7.07;2.83;;;8.40;87.30;;;;;;5015072;28;20411;-92
2024/01/28 11:00:30;;;;;;;6.07;3.25;;;8.50;83.40;;;;;;5030554;28;20409;-92
2024/01/28 11:02:59;;;;;;;7.30;3.40;;;8.20;77.00;;;;;;5014058;28;20489;-92
2024/01/28 11:05:28;;;;;;;5.90;3.40;;;8.30;91.20;;;;;;5024708;28;20516;-91
2024/01/28 11:07:59;;;;;;;7.70;3.13;;;8.40;90.30;;;;;;5039062;28;20503;-93
2024/01/28 11:10:29;;;;;;;7.95;3.17;;;8.50;88.80;;;;;;5016729;28;20401;-93
2024/01/28 11:12:58;;;;;;;9.23;3.63;;;8.60;86.20;;;;;;5030550;28;20591;-92
2024/01/28 11:15:26;;;;;;;10.25;5.30;;;8.20;82.60;;;;;;5012170;28;20411;-92
2024/01/28 11:17:51;;;;;;;8.23;3.30;;;8.60;83.70;;;;;;5010393;28;20414;-91
2024/01/28 11:20:23;;;;;;;7.55;3.50;;;8.30;79.10;;;;;;5028059;28;20407;-92
2024/01/28 11:22:58;;;;;;;7.78;3.40;;;8.60;80.90;;;;;;5010132;28;20403;-92
2024/01/28 11:25:26;;;;;;;6.67;2.77;;;8.80;80.40;;;;;;5032576;28;20472;-93
2024/01/28 11:28:05;;;;;;;6.32;2.80;;;8.60;77.60;;;;;;5031697;28;20437;-93
2024/01/28 11:30:33;;;;;;;7.60;3.28;;;9.00;77.40;;;;;;5027029;28;20431;-91
2024/01/28 11:33:10;;;;;;;7.03;2.65;;;9.50;74.00;;;;;;5029481;28;20432;-92
2024/01/28 11:35:36;;;;;;;7.22;3.20;;;9.20;73.60;;;;;;5016475;28;20415;-93
2024/01/28 11:38:06;;;;;;;6.93;3.20;;;9.10;76.50;;;;;;5011973;28;20430;-92
2024/01/28 11:40:36;;;;;;;7.65;3.75;;;9.70;74.20;;;;;;5015869;28;20509;-92
2024/01/28 11:43:05;;;;;;;7.72;3.33;;;9.70;76.10;;;;;;5047860;28;20409;-93
2024/01/28 11:45:31;;;;;;;6.37;3.20;;;9.90;69.50;;;;;;5011999;28;21009;-91
2024/01/28 11:47:57;;;;;;;7.60;3.03;;;9.30;67.60;;;;;;5026640;28;20437;-93
2024/01/28 11:50:24;;;;;;;5.90;3.15;;;8.80;70.70;;;;;;5031926;28;20734;-93
2024/01/28 11:52:49;;;;;;;6.97;3.22;;;8.60;72.40;;;;;;5023176;28;20399;-92
2024/01/28 11:55:19;;;;;;;7.13;3.03;;;8.60;70.00;;;;;;5013743;28;20464;-92
2024/01/28 11:57:47;;;;;;;6.97;3.60;;;9.00;70.00;;;;;;5047401;28;20481;-92
2024/01/28 12:00:14;;;;;;;7.25;2.60;;;9.50;71.00;;;;;;5013461;28;20482;-91
2024/01/28 12:02:41;;;;;;;6.57;3.00;;;9.80;64.10;;;;;;5024193;28;20405;-93
2024/01/28 12:05:08;;;;;;;5.85;3.20;;;10.50;63.20;;;;;;5021069;28;20960;-93
2024/01/28 12:07:35;;;;;;;6.22;2.85;;;10.70;62.60;;;;;;5031766;28;20468;-92
2024/01/28 12:10:02;;;;;;;7.05;2.60;;;11.40;63.10;;;;;;5046051;28;20404;-95
2024/01/28 12:12:29;;;;;;;7.47;3.15;;;11.40;60.00;;;;;;5031414;28;20393;-92
2024/01/28 12:14:58;;;;;;;7.50;2.60;;;11.80;57.60;;;;;;5015383;28;20411;-95
2024/01/28 12:17:23;;;;;;;6.25;2.80;;;11.90;57.30;;;;;;5021158;28;20733;-93
2024/01/28 12:19:51;;;;;;;5.88;2.60;;;12.30;56.00;;;;;;5025560;28;20406;-93
2024/01/28 12:22:17;;;;;;;5.95;2.58;;;12.60;55.60;;;;;;5010988;28;20414;-92
2024/01/28 12:24:49;;;;;;;7.27;3.03;;;12.70;54.00;;;;;;5030669;28;20421;-94
2024/01/28 12:27:16;;;;;;;6.93;3.07;;;12.30;53.80;;;;;;5029249;28;20417;-92
2024/01/28 12:29:42;;;;;;;5.82;2.60;;;12.20;55.40;;;;;;5019348;28;20415;-93
2024/01/28 12:32:11;;;;;;;5.57;2.45;;;12.50;54.70;;;;;;5016534;28;20508;-94
2024/01/28 12:34:36;;;;;;;5.22;2.53;;;12.50;54.70;;;;;;5028046;28;20449;-93
2024/01/28 12:37:03;;;;;;;5.60;2.70;;;11.70;54.30;;;;;;5010170;28;20410;-94